sensor_id;sensor_type;location;lat;lon;timestamp;P1;durP1;ratioP1;P2;durP2;ratioP2
63007;SDS011;49266;47.552;19.078;2022-11-18T00:01:08;73.75;;;45.15;;
63007;SDS011;49266;47.552;19.078;2022-11-18T00:05:52;75.20;;;44.30;;
63007;SDS011;49266;47.552;19.078;2022-11-18T00:10:35;74.85;;;45.40;;
63007;SDS011;49266;47.552;19.078;2022-11-18T00:15:15;72.22;;;45.33;;
63007;SDS011;49266;47.552;19.078;2022-11-18T00:19:56;78.97;;;48.08;;
63007;SDS011;49266;47.552;19.078;2022-11-18T00:24:36;79.93;;;46.50;;
63007;SDS011;49266;47.552;19.078;2022-11-18T00:29:16;74.78;;;45.70;;
63007;SDS011;49266;47.552;19.078;2022-11-18T00:33:56;73.18;;;42.97;;
63007;SDS011;49266;47.552;19.078;2022-11-18T00:38:37;71.45;;;42.50;;
63007;SDS011;49266;47.552;19.078;2022-11-18T00:43:17;77.70;;;46.47;;
63007;SDS011;49266;47.552;19.078;2022-11-18T00:47:58;76.95;;;45.78;;
63007;SDS011;49266;47.552;19.078;2022-11-18T00:52:38;75.60;;;44.72;;
63007;SDS011;49266;47.552;19.078;2022-11-18T00:57:18;78.88;;;46.75;;
63007;SDS011;49266;47.552;19.078;2022-11-18T01:01:58;77.95;;;46.45;;
63007;SDS011;49266;47.552;19.078;2022-11-18T01:06:38;81.72;;;48.03;;
63007;SDS011;49266;47.552;19.078;2022-11-18T01:11:18;76.70;;;45.63;;
63007;SDS011;49266;47.552;19.078;2022-11-18T01:16:17;76.30;;;44.63;;
63007;SDS011;49266;47.552;19.078;2022-11-18T01:21:01;69.07;;;43.88;;
63007;SDS011;49266;47.552;19.078;2022-11-18T01:25:42;72.75;;;41.95;;
63007;SDS011;49266;47.552;19.078;2022-11-18T01:30:23;69.05;;;43.30;;
63007;SDS011;49266;47.552;19.078;2022-11-18T01:35:03;74.47;;;42.63;;
63007;SDS011;49266;47.552;19.078;2022-11-18T01:39:43;74.95;;;42.28;;
63007;SDS011;49266;47.552;19.078;2022-11-18T01:49:22;64.07;;;40.40;;
63007;SDS011;49266;47.552;19.078;2022-11-18T01:54:07;69.38;;;40.80;;
63007;SDS011;49266;47.552;19.078;2022-11-18T01:58:49;79.05;;;46.50;;
63007;SDS011;49266;47.552;19.078;2022-11-18T02:03:32;84.90;;;47.83;;
63007;SDS011;49266;47.552;19.078;2022-11-18T02:08:13;85.03;;;47.55;;
63007;SDS011;49266;47.552;19.078;2022-11-18T02:12:54;90.10;;;47.22;;
63007;SDS011;49266;47.552;19.078;2022-11-18T02:33:07;204.57;;;58.05;;
63007;SDS011;49266;47.552;19.078;2022-11-18T02:37:49;174.35;;;55.15;;
63007;SDS011;49266;47.552;19.078;2022-11-18T02:42:31;207.15;;;56.95;;
63007;SDS011;49266;47.552;19.078;2022-11-18T02:47:14;243.52;;;61.28;;
63007;SDS011;49266;47.552;19.078;2022-11-18T02:51:55;188.25;;;58.00;;
63007;SDS011;49266;47.552;19.078;2022-11-18T02:56:36;121.80;;;56.03;;
63007;SDS011;49266;47.552;19.078;2022-11-18T03:01:20;104.97;;;50.50;;
63007;SDS011;49266;47.552;19.078;2022-11-18T03:11:45;85.97;;;46.05;;
63007;SDS011;49266;47.552;19.078;2022-11-18T03:16:09;79.22;;;44.22;;
63007;SDS011;49266;47.552;19.078;2022-11-18T03:30:16;67.03;;;39.97;;
63007;SDS011;49266;47.552;19.078;2022-11-18T03:35:02;76.55;;;41.78;;
63007;SDS011;49266;47.552;19.078;2022-11-18T03:39:45;84.35;;;43.22;;
63007;SDS011;49266;47.552;19.078;2022-11-18T03:44:29;75.63;;;40.53;;
63007;SDS011;49266;47.552;19.078;2022-11-18T03:49:11;84.72;;;40.78;;
63007;SDS011;49266;47.552;19.078;2022-11-18T03:53:57;84.80;;;42.50;;
63007;SDS011;49266;47.552;19.078;2022-11-18T03:58:42;80.23;;;40.13;;
63007;SDS011;49266;47.552;19.078;2022-11-18T04:03:25;87.45;;;40.47;;
63007;SDS011;49266;47.552;19.078;2022-11-18T04:08:09;100.05;;;41.95;;
63007;SDS011;49266;47.552;19.078;2022-11-18T04:12:53;107.82;;;41.30;;
63007;SDS011;49266;47.552;19.078;2022-11-18T04:17:39;95.38;;;41.88;;
63007;SDS011;49266;47.552;19.078;2022-11-18T04:22:19;119.10;;;40.17;;
63007;SDS011;49266;47.552;19.078;2022-11-18T04:27:00;133.35;;;45.40;;
63007;SDS011;49266;47.552;19.078;2022-11-18T04:31:41;118.28;;;43.47;;
63007;SDS011;49266;47.552;19.078;2022-11-18T04:36:21;128.70;;;43.72;;
63007;SDS011;49266;47.552;19.078;2022-11-18T04:41:01;148.10;;;44.47;;
63007;SDS011;49266;47.552;19.078;2022-11-18T04:45:42;153.48;;;46.80;;
63007;SDS011;49266;47.552;19.078;2022-11-18T04:50:22;128.75;;;44.55;;
63007;SDS011;49266;47.552;19.078;2022-11-18T04:55:02;135.75;;;47.55;;
63007;SDS011;49266;47.552;19.078;2022-11-18T04:59:42;112.43;;;43.95;;
63007;SDS011;49266;47.552;19.078;2022-11-18T05:04:23;138.20;;;43.42;;
63007;SDS011;49266;47.552;19.078;2022-11-18T05:09:04;154.43;;;43.67;;
63007;SDS011;49266;47.552;19.078;2022-11-18T05:13:44;137.27;;;44.05;;
63007;SDS011;49266;47.552;19.078;2022-11-18T05:18:24;113.28;;;41.80;;
63007;SDS011;49266;47.552;19.078;2022-11-18T05:23:04;148.73;;;41.72;;
63007;SDS011;49266;47.552;19.078;2022-11-18T05:27:44;171.18;;;45.28;;
63007;SDS011;49266;47.552;19.078;2022-11-18T05:32:25;185.52;;;45.58;;
63007;SDS011;49266;47.552;19.078;2022-11-18T05:37:05;164.93;;;45.97;;
63007;SDS011;49266;47.552;19.078;2022-11-18T05:41:45;175.98;;;47.97;;
63007;SDS011;49266;47.552;19.078;2022-11-18T05:46:44;162.82;;;47.35;;
63007;SDS011;49266;47.552;19.078;2022-11-18T05:51:24;169.90;;;47.45;;
63007;SDS011;49266;47.552;19.078;2022-11-18T05:56:18;145.07;;;47.53;;
63007;SDS011;49266;47.552;19.078;2022-11-18T06:01:00;146.35;;;47.15;;
63007;SDS011;49266;47.552;19.078;2022-11-18T06:05:41;146.13;;;44.67;;
63007;SDS011;49266;47.552;19.078;2022-11-18T06:10:23;137.45;;;45.38;;
63007;SDS011;49266;47.552;19.078;2022-11-18T06:19:44;111.70;;;37.88;;
63007;SDS011;49266;47.552;19.078;2022-11-18T06:24:25;87.80;;;35.25;;
63007;SDS011;49266;47.552;19.078;2022-11-18T06:29:05;82.80;;;33.45;;
63007;SDS011;49266;47.552;19.078;2022-11-18T06:33:47;84.82;;;33.85;;
63007;SDS011;49266;47.552;19.078;2022-11-18T06:38:27;86.70;;;35.33;;
63007;SDS011;49266;47.552;19.078;2022-11-18T06:43:07;92.03;;;33.97;;
63007;SDS011;49266;47.552;19.078;2022-11-18T06:48:07;103.85;;;37.75;;
63007;SDS011;49266;47.552;19.078;2022-11-18T06:52:47;108.50;;;39.03;;
63007;SDS011;49266;47.552;19.078;2022-11-18T06:57:27;110.57;;;38.10;;
63007;SDS011;49266;47.552;19.078;2022-11-18T07:02:07;92.88;;;35.28;;
63007;SDS011;49266;47.552;19.078;2022-11-18T07:06:49;100.78;;;36.70;;
63007;SDS011;49266;47.552;19.078;2022-11-18T07:11:29;94.20;;;36.22;;
63007;SDS011;49266;47.552;19.078;2022-11-18T07:16:16;102.20;;;37.55;;
63007;SDS011;49266;47.552;19.078;2022-11-18T07:20:59;94.00;;;36.22;;
63007;SDS011;49266;47.552;19.078;2022-11-18T07:25:40;87.03;;;33.15;;
63007;SDS011;49266;47.552;19.078;2022-11-18T07:30:20;79.28;;;33.30;;
63007;SDS011;49266;47.552;19.078;2022-11-18T07:35:00;73.85;;;32.65;;
63007;SDS011;49266;47.552;19.078;2022-11-18T07:39:41;63.17;;;30.30;;
63007;SDS011;49266;47.552;19.078;2022-11-18T07:44:21;60.88;;;31.27;;
63007;SDS011;49266;47.552;19.078;2022-11-18T07:49:02;59.92;;;29.50;;
63007;SDS011;49266;47.552;19.078;2022-11-18T07:53:43;58.70;;;29.05;;
63007;SDS011;49266;47.552;19.078;2022-11-18T07:58:23;51.72;;;27.52;;
63007;SDS011;49266;47.552;19.078;2022-11-18T08:03:03;49.03;;;26.92;;
63007;SDS011;49266;47.552;19.078;2022-11-18T08:07:43;44.90;;;25.27;;
63007;SDS011;49266;47.552;19.078;2022-11-18T08:12:24;47.70;;;25.37;;
63007;SDS011;49266;47.552;19.078;2022-11-18T08:17:04;45.33;;;25.80;;
63007;SDS011;49266;47.552;19.078;2022-11-18T08:21:44;44.22;;;26.08;;
63007;SDS011;49266;47.552;19.078;2022-11-18T08:26:25;44.50;;;25.00;;
63007;SDS011;49266;47.552;19.078;2022-11-18T08:31:09;44.83;;;26.35;;
63007;SDS011;49266;47.552;19.078;2022-11-18T08:35:49;45.72;;;26.10;;
63007;SDS011;49266;47.552;19.078;2022-11-18T08:40:30;46.15;;;26.15;;
63007;SDS011;49266;47.552;19.078;2022-11-18T08:45:10;43.78;;;24.67;;
63007;SDS011;49266;47.552;19.078;2022-11-18T08:49:50;46.92;;;25.15;;
63007;SDS011;49266;47.552;19.078;2022-11-18T08:54:31;44.80;;;24.00;;
63007;SDS011;49266;47.552;19.078;2022-11-18T08:59:11;45.22;;;24.70;;
63007;SDS011;49266;47.552;19.078;2022-11-18T09:03:51;53.05;;;25.08;;
63007;SDS011;49266;47.552;19.078;2022-11-18T09:08:31;56.45;;;26.13;;
63007;SDS011;49266;47.552;19.078;2022-11-18T09:13:11;53.92;;;26.70;;
63007;SDS011;49266;47.552;19.078;2022-11-18T09:17:52;58.03;;;25.10;;
63007;SDS011;49266;47.552;19.078;2022-11-18T09:22:34;48.25;;;25.25;;
63007;SDS011;49266;47.552;19.078;2022-11-18T09:27:14;47.20;;;24.60;;
63007;SDS011;49266;47.552;19.078;2022-11-18T09:31:55;69.25;;;27.20;;
63007;SDS011;49266;47.552;19.078;2022-11-18T09:36:35;48.08;;;25.85;;
63007;SDS011;49266;47.552;19.078;2022-11-18T09:41:19;49.85;;;25.35;;
63007;SDS011;49266;47.552;19.078;2022-11-18T09:50:42;48.17;;;26.42;;
63007;SDS011;49266;47.552;19.078;2022-11-18T09:55:22;43.55;;;23.85;;
63007;SDS011;49266;47.552;19.078;2022-11-18T10:00:12;43.92;;;23.75;;
63007;SDS011;49266;47.552;19.078;2022-11-18T10:04:53;44.13;;;23.30;;
63007;SDS011;49266;47.552;19.078;2022-11-18T10:19:17;46.78;;;24.17;;
63007;SDS011;49266;47.552;19.078;2022-11-18T10:24:18;42.33;;;23.13;;
63007;SDS011;49266;47.552;19.078;2022-11-18T10:28:59;40.00;;;22.10;;
63007;SDS011;49266;47.552;19.078;2022-11-18T10:33:39;43.20;;;22.87;;
63007;SDS011;49266;47.552;19.078;2022-11-18T10:38:19;45.50;;;23.23;;
63007;SDS011;49266;47.552;19.078;2022-11-18T10:43:00;43.67;;;22.35;;
63007;SDS011;49266;47.552;19.078;2022-11-18T10:47:40;41.05;;;22.63;;
63007;SDS011;49266;47.552;19.078;2022-11-18T10:52:20;41.85;;;21.92;;
63007;SDS011;49266;47.552;19.078;2022-11-18T10:57:05;37.00;;;21.13;;
63007;SDS011;49266;47.552;19.078;2022-11-18T11:01:55;34.03;;;19.50;;
63007;SDS011;49266;47.552;19.078;2022-11-18T11:06:36;34.88;;;19.52;;
63007;SDS011;49266;47.552;19.078;2022-11-18T11:11:20;35.90;;;21.02;;
63007;SDS011;49266;47.552;19.078;2022-11-18T11:16:04;32.95;;;19.50;;
63007;SDS011;49266;47.552;19.078;2022-11-18T11:20:45;36.58;;;20.45;;
63007;SDS011;49266;47.552;19.078;2022-11-18T11:25:32;35.40;;;20.20;;
63007;SDS011;49266;47.552;19.078;2022-11-18T11:30:19;31.73;;;19.70;;
63007;SDS011;49266;47.552;19.078;2022-11-18T11:49:37;34.72;;;18.48;;
63007;SDS011;49266;47.552;19.078;2022-11-18T11:54:44;40.45;;;20.27;;
63007;SDS011;49266;47.552;19.078;2022-11-18T11:59:24;33.78;;;19.80;;
63007;SDS011;49266;47.552;19.078;2022-11-18T12:08:55;33.53;;;18.60;;
63007;SDS011;49266;47.552;19.078;2022-11-18T12:13:54;36.40;;;18.63;;
63007;SDS011;49266;47.552;19.078;2022-11-18T12:18:37;36.13;;;18.73;;
63007;SDS011;49266;47.552;19.078;2022-11-18T12:23:28;32.30;;;19.00;;
63007;SDS011;49266;47.552;19.078;2022-11-18T12:28:08;34.95;;;16.27;;
63007;SDS011;49266;47.552;19.078;2022-11-18T12:32:49;29.83;;;16.45;;
63007;SDS011;49266;47.552;19.078;2022-11-18T12:57:12;31.55;;;18.20;;
63007;SDS011;49266;47.552;19.078;2022-11-18T13:02:01;29.65;;;17.85;;
63007;SDS011;49266;47.552;19.078;2022-11-18T13:06:41;26.45;;;16.33;;
63007;SDS011;49266;47.552;19.078;2022-11-18T13:11:22;27.38;;;15.95;;
63007;SDS011;49266;47.552;19.078;2022-11-18T13:16:22;28.88;;;17.30;;
63007;SDS011;49266;47.552;19.078;2022-11-18T13:21:22;29.85;;;18.15;;
63007;SDS011;49266;47.552;19.078;2022-11-18T13:31:04;28.77;;;16.25;;
63007;SDS011;49266;47.552;19.078;2022-11-18T13:35:46;26.25;;;15.48;;
63007;SDS011;49266;47.552;19.078;2022-11-18T13:40:28;31.35;;;16.95;;
63007;SDS011;49266;47.552;19.078;2022-11-18T13:45:11;32.35;;;17.55;;
63007;SDS011;49266;47.552;19.078;2022-11-18T13:54:35;37.83;;;19.92;;
63007;SDS011;49266;47.552;19.078;2022-11-18T13:59:19;38.78;;;20.52;;
63007;SDS011;49266;47.552;19.078;2022-11-18T14:04:05;41.10;;;22.70;;
63007;SDS011;49266;47.552;19.078;2022-11-18T14:08:46;41.53;;;22.42;;
63007;SDS011;49266;47.552;19.078;2022-11-18T14:18:28;42.75;;;23.08;;
63007;SDS011;49266;47.552;19.078;2022-11-18T14:23:11;49.25;;;24.90;;
63007;SDS011;49266;47.552;19.078;2022-11-18T14:27:55;47.05;;;24.02;;
63007;SDS011;49266;47.552;19.078;2022-11-18T14:32:35;46.03;;;25.00;;
63007;SDS011;49266;47.552;19.078;2022-11-18T14:37:15;44.65;;;24.35;;
63007;SDS011;49266;47.552;19.078;2022-11-18T14:41:56;49.22;;;25.35;;
63007;SDS011;49266;47.552;19.078;2022-11-18T14:46:37;58.40;;;28.23;;
63007;SDS011;49266;47.552;19.078;2022-11-18T14:51:17;49.63;;;26.17;;
63007;SDS011;49266;47.552;19.078;2022-11-18T14:55:57;44.03;;;25.05;;
63007;SDS011;49266;47.552;19.078;2022-11-18T15:00:39;47.30;;;26.38;;
63007;SDS011;49266;47.552;19.078;2022-11-18T15:05:20;54.67;;;28.52;;
63007;SDS011;49266;47.552;19.078;2022-11-18T15:10:00;53.90;;;28.10;;
63007;SDS011;49266;47.552;19.078;2022-11-18T15:14:40;43.97;;;24.48;;
63007;SDS011;49266;47.552;19.078;2022-11-18T15:19:20;55.17;;;27.88;;
63007;SDS011;49266;47.552;19.078;2022-11-18T15:24:01;43.45;;;24.35;;
63007;SDS011;49266;47.552;19.078;2022-11-18T15:28:41;43.03;;;23.80;;
63007;SDS011;49266;47.552;19.078;2022-11-18T15:33:21;46.05;;;23.90;;
63007;SDS011;49266;47.552;19.078;2022-11-18T15:38:01;46.88;;;25.75;;
63007;SDS011;49266;47.552;19.078;2022-11-18T15:42:42;47.80;;;26.17;;
63007;SDS011;49266;47.552;19.078;2022-11-18T15:47:22;53.72;;;27.00;;
63007;SDS011;49266;47.552;19.078;2022-11-18T15:52:02;57.30;;;28.52;;
63007;SDS011;49266;47.552;19.078;2022-11-18T15:56:42;53.78;;;28.40;;
63007;SDS011;49266;47.552;19.078;2022-11-18T16:01:23;50.17;;;27.42;;
63007;SDS011;49266;47.552;19.078;2022-11-18T16:06:04;56.97;;;27.98;;
63007;SDS011;49266;47.552;19.078;2022-11-18T16:10:44;49.92;;;26.23;;
63007;SDS011;49266;47.552;19.078;2022-11-18T16:15:43;51.05;;;27.10;;
63007;SDS011;49266;47.552;19.078;2022-11-18T16:20:25;48.75;;;26.52;;
63007;SDS011;49266;47.552;19.078;2022-11-18T16:25:06;52.97;;;28.02;;
63007;SDS011;49266;47.552;19.078;2022-11-18T16:29:46;61.92;;;30.95;;
63007;SDS011;49266;47.552;19.078;2022-11-18T16:34:26;60.50;;;28.75;;
63007;SDS011;49266;47.552;19.078;2022-11-18T16:39:16;71.80;;;31.70;;
63007;SDS011;49266;47.552;19.078;2022-11-18T16:43:58;71.90;;;30.83;;
63007;SDS011;49266;47.552;19.078;2022-11-18T16:48:38;72.60;;;31.63;;
63007;SDS011;49266;47.552;19.078;2022-11-18T16:53:18;68.18;;;30.88;;
63007;SDS011;49266;47.552;19.078;2022-11-18T16:57:59;59.38;;;29.00;;
63007;SDS011;49266;47.552;19.078;2022-11-18T17:02:39;61.67;;;28.80;;
63007;SDS011;49266;47.552;19.078;2022-11-18T17:07:19;71.18;;;30.08;;
63007;SDS011;49266;47.552;19.078;2022-11-18T17:11:59;59.70;;;27.45;;
63007;SDS011;49266;47.552;19.078;2022-11-18T17:16:40;58.78;;;26.85;;
63007;SDS011;49266;47.552;19.078;2022-11-18T17:21:20;58.17;;;27.95;;
63007;SDS011;49266;47.552;19.078;2022-11-18T17:26:01;56.38;;;28.05;;
63007;SDS011;49266;47.552;19.078;2022-11-18T17:30:41;67.05;;;28.90;;
63007;SDS011;49266;47.552;19.078;2022-11-18T17:35:21;60.72;;;28.75;;
63007;SDS011;49266;47.552;19.078;2022-11-18T17:40:01;64.13;;;30.13;;
63007;SDS011;49266;47.552;19.078;2022-11-18T17:44:42;70.28;;;31.45;;
63007;SDS011;49266;47.552;19.078;2022-11-18T17:49:22;60.05;;;28.25;;
63007;SDS011;49266;47.552;19.078;2022-11-18T17:54:02;68.57;;;30.58;;
63007;SDS011;49266;47.552;19.078;2022-11-18T17:58:43;63.47;;;29.73;;
63007;SDS011;49266;47.552;19.078;2022-11-18T18:03:23;58.35;;;29.45;;
63007;SDS011;49266;47.552;19.078;2022-11-18T18:08:03;59.15;;;29.15;;
63007;SDS011;49266;47.552;19.078;2022-11-18T18:12:45;60.35;;;29.02;;
63007;SDS011;49266;47.552;19.078;2022-11-18T18:17:45;55.75;;;26.75;;
63007;SDS011;49266;47.552;19.078;2022-11-18T18:22:25;61.90;;;29.80;;
63007;SDS011;49266;47.552;19.078;2022-11-18T18:27:05;54.17;;;27.83;;
63007;SDS011;49266;47.552;19.078;2022-11-18T18:31:46;54.85;;;26.83;;
63007;SDS011;49266;47.552;19.078;2022-11-18T18:36:26;60.00;;;28.38;;
63007;SDS011;49266;47.552;19.078;2022-11-18T18:41:08;64.93;;;29.15;;
63007;SDS011;49266;47.552;19.078;2022-11-18T18:45:49;54.65;;;27.92;;
63007;SDS011;49266;47.552;19.078;2022-11-18T18:50:48;59.13;;;28.58;;
63007;SDS011;49266;47.552;19.078;2022-11-18T18:55:28;59.28;;;30.27;;
63007;SDS011;49266;47.552;19.078;2022-11-18T19:00:08;59.70;;;28.50;;
63007;SDS011;49266;47.552;19.078;2022-11-18T19:04:50;50.17;;;26.67;;
63007;SDS011;49266;47.552;19.078;2022-11-18T19:09:34;59.05;;;28.77;;
63007;SDS011;49266;47.552;19.078;2022-11-18T19:14:16;52.53;;;28.48;;
63007;SDS011;49266;47.552;19.078;2022-11-18T19:18:57;52.92;;;28.23;;
63007;SDS011;49266;47.552;19.078;2022-11-18T19:23:37;48.92;;;26.45;;
63007;SDS011;49266;47.552;19.078;2022-11-18T19:28:18;50.03;;;25.80;;
63007;SDS011;49266;47.552;19.078;2022-11-18T19:32:58;52.40;;;27.88;;
63007;SDS011;49266;47.552;19.078;2022-11-18T19:37:38;51.00;;;26.33;;
63007;SDS011;49266;47.552;19.078;2022-11-18T19:42:19;46.75;;;25.05;;
63007;SDS011;49266;47.552;19.078;2022-11-18T19:46:59;46.25;;;25.08;;
63007;SDS011;49266;47.552;19.078;2022-11-18T19:51:39;52.78;;;26.73;;
63007;SDS011;49266;47.552;19.078;2022-11-18T19:56:19;49.92;;;25.88;;
63007;SDS011;49266;47.552;19.078;2022-11-18T20:01:10;42.72;;;22.67;;
63007;SDS011;49266;47.552;19.078;2022-11-18T20:05:51;42.08;;;23.20;;
63007;SDS011;49266;47.552;19.078;2022-11-18T20:10:31;38.75;;;21.25;;
63007;SDS011;49266;47.552;19.078;2022-11-18T20:15:11;26.08;;;15.93;;
63007;SDS011;49266;47.552;19.078;2022-11-18T20:19:51;26.33;;;16.33;;
63007;SDS011;49266;47.552;19.078;2022-11-18T20:24:31;19.52;;;12.93;;
63007;SDS011;49266;47.552;19.078;2022-11-18T20:29:12;18.10;;;11.63;;
63007;SDS011;49266;47.552;19.078;2022-11-18T20:33:53;18.75;;;11.52;;
63007;SDS011;49266;47.552;19.078;2022-11-18T20:38:33;17.42;;;10.45;;
63007;SDS011;49266;47.552;19.078;2022-11-18T20:43:13;18.05;;;11.20;;
63007;SDS011;49266;47.552;19.078;2022-11-18T20:47:53;18.13;;;11.70;;
63007;SDS011;49266;47.552;19.078;2022-11-18T20:52:34;17.00;;;12.07;;
63007;SDS011;49266;47.552;19.078;2022-11-18T20:57:14;16.50;;;10.73;;
63007;SDS011;49266;47.552;19.078;2022-11-18T21:01:54;14.70;;;10.93;;
63007;SDS011;49266;47.552;19.078;2022-11-18T21:06:34;19.02;;;12.10;;
63007;SDS011;49266;47.552;19.078;2022-11-18T21:11:14;16.23;;;11.35;;
63007;SDS011;49266;47.552;19.078;2022-11-18T21:15:55;14.68;;;10.80;;
63007;SDS011;49266;47.552;19.078;2022-11-18T21:20:35;14.60;;;10.27;;
63007;SDS011;49266;47.552;19.078;2022-11-18T21:25:34;13.85;;;9.57;;
63007;SDS011;49266;47.552;19.078;2022-11-18T21:30:14;11.38;;;8.63;;
63007;SDS011;49266;47.552;19.078;2022-11-18T21:34:56;12.35;;;9.55;;
63007;SDS011;49266;47.552;19.078;2022-11-18T21:39:36;12.82;;;8.25;;
63007;SDS011;49266;47.552;19.078;2022-11-18T21:44:16;15.27;;;11.15;;
63007;SDS011;49266;47.552;19.078;2022-11-18T21:48:57;15.70;;;11.75;;
63007;SDS011;49266;47.552;19.078;2022-11-18T21:53:37;14.68;;;11.57;;
63007;SDS011;49266;47.552;19.078;2022-11-18T21:58:17;15.63;;;12.00;;
63007;SDS011;49266;47.552;19.078;2022-11-18T22:02:57;17.08;;;12.27;;
63007;SDS011;49266;47.552;19.078;2022-11-18T22:07:37;15.38;;;10.88;;
63007;SDS011;49266;47.552;19.078;2022-11-18T22:12:18;16.90;;;11.98;;
63007;SDS011;49266;47.552;19.078;2022-11-18T22:16:58;18.83;;;13.55;;
63007;SDS011;49266;47.552;19.078;2022-11-18T22:21:38;18.50;;;13.70;;
63007;SDS011;49266;47.552;19.078;2022-11-18T22:26:19;19.98;;;14.65;;
63007;SDS011;49266;47.552;19.078;2022-11-18T22:31:00;20.58;;;14.43;;
63007;SDS011;49266;47.552;19.078;2022-11-18T22:35:40;17.33;;;12.95;;
63007;SDS011;49266;47.552;19.078;2022-11-18T22:40:20;19.17;;;14.45;;
63007;SDS011;49266;47.552;19.078;2022-11-18T22:45:00;18.88;;;13.88;;
63007;SDS011;49266;47.552;19.078;2022-11-18T22:49:41;22.33;;;14.13;;
63007;SDS011;49266;47.552;19.078;2022-11-18T22:54:21;19.48;;;15.05;;
63007;SDS011;49266;47.552;19.078;2022-11-18T22:59:01;22.10;;;14.77;;
63007;SDS011;49266;47.552;19.078;2022-11-18T23:03:43;22.50;;;16.52;;
63007;SDS011;49266;47.552;19.078;2022-11-18T23:08:24;22.17;;;16.10;;
63007;SDS011;49266;47.552;19.078;2022-11-18T23:13:04;22.58;;;16.15;;
63007;SDS011;49266;47.552;19.078;2022-11-18T23:18:03;25.73;;;17.15;;
63007;SDS011;49266;47.552;19.078;2022-11-18T23:22:43;24.17;;;16.77;;
63007;SDS011;49266;47.552;19.078;2022-11-18T23:27:23;24.73;;;17.33;;
63007;SDS011;49266;47.552;19.078;2022-11-18T23:32:03;27.20;;;17.60;;
63007;SDS011;49266;47.552;19.078;2022-11-18T23:36:44;27.73;;;18.17;;
63007;SDS011;49266;47.552;19.078;2022-11-18T23:41:24;25.98;;;17.80;;
63007;SDS011;49266;47.552;19.078;2022-11-18T23:46:05;29.35;;;18.48;;
63007;SDS011;49266;47.552;19.078;2022-11-18T23:50:52;27.98;;;17.80;;
63007;SDS011;49266;47.552;19.078;2022-11-18T23:55:32;28.73;;;18.67;;
